sensor_id;sensor_type;location;lat;lon;timestamp;temperature;humidity
61351;DHT22;47119;49.130;9.218;2022-07-12T00:01:40;19.81;65.17
61351;DHT22;47119;49.130;9.218;2022-07-12T00:04:07;19.83;65.10
61351;DHT22;47119;49.130;9.218;2022-07-12T00:06:34;19.86;65.22
61351;DHT22;47119;49.130;9.218;2022-07-12T00:09:03;19.85;65.22
61351;DHT22;47119;49.130;9.218;2022-07-12T00:11:30;19.83;65.25
61351;DHT22;47119;49.130;9.218;2022-07-12T00:13:58;19.86;65.34
61351;DHT22;47119;49.130;9.218;2022-07-12T00:16:25;19.83;65.28
61351;DHT22;47119;49.130;9.218;2022-07-12T00:18:54;19.85;65.37
61351;DHT22;47119;49.130;9.218;2022-07-12T00:21:24;19.81;65.47
61351;DHT22;47119;49.130;9.218;2022-07-12T00:23:51;19.77;65.58
61351;DHT22;47119;49.130;9.218;2022-07-12T00:26:20;19.75;65.57
61351;DHT22;47119;49.130;9.218;2022-07-12T00:28:49;19.75;65.61
61351;DHT22;47119;49.130;9.218;2022-07-12T00:31:18;19.77;65.64
61351;DHT22;47119;49.130;9.218;2022-07-12T00:33:48;19.75;65.69
61351;DHT22;47119;49.130;9.218;2022-07-12T00:36:17;19.77;65.69
61351;DHT22;47119;49.130;9.218;2022-07-12T00:38:45;19.75;65.87
61351;DHT22;47119;49.130;9.218;2022-07-12T00:41:12;19.74;65.80
61351;DHT22;47119;49.130;9.218;2022-07-12T00:43:41;19.75;65.71
61351;DHT22;47119;49.130;9.218;2022-07-12T00:46:10;19.69;65.79
61351;DHT22;47119;49.130;9.218;2022-07-12T00:48:37;19.72;65.82
61351;DHT22;47119;49.130;9.218;2022-07-12T00:54:52;19.71;65.88
61351;DHT22;47119;49.130;9.218;2022-07-12T00:57:19;19.72;65.88
61351;DHT22;47119;49.130;9.218;2022-07-12T00:59:48;19.71;66.00
61351;DHT22;47119;49.130;9.218;2022-07-12T01:02:15;19.68;66.05
61351;DHT22;47119;49.130;9.218;2022-07-12T01:04:45;19.71;66.06
61351;DHT22;47119;49.130;9.218;2022-07-12T01:07:13;19.68;66.09
61351;DHT22;47119;49.130;9.218;2022-07-12T01:09:43;19.68;66.05
61351;DHT22;47119;49.130;9.218;2022-07-12T01:12:14;19.67;66.22
61351;DHT22;47119;49.130;9.218;2022-07-12T01:14:41;19.67;66.30
61351;DHT22;47119;49.130;9.218;2022-07-12T01:17:11;19.68;66.23
61351;DHT22;47119;49.130;9.218;2022-07-12T01:19:40;19.67;66.31
61351;DHT22;47119;49.130;9.218;2022-07-12T01:22:09;19.67;66.22
61351;DHT22;47119;49.130;9.218;2022-07-12T01:24:42;19.67;66.24
61351;DHT22;47119;49.130;9.218;2022-07-12T01:27:10;19.64;66.37
61351;DHT22;47119;49.130;9.218;2022-07-12T01:29:38;19.62;66.41
61351;DHT22;47119;49.130;9.218;2022-07-12T01:32:09;19.61;66.45
61351;DHT22;47119;49.130;9.218;2022-07-12T01:34:55;19.62;66.58
61351;DHT22;47119;49.130;9.218;2022-07-12T01:37:25;19.61;66.78
61351;DHT22;47119;49.130;9.218;2022-07-12T01:40:03;19.61;66.93
61351;DHT22;47119;49.130;9.218;2022-07-12T01:42:31;19.61;66.99
61351;DHT22;47119;49.130;9.218;2022-07-12T01:45:02;19.64;66.56
61351;DHT22;47119;49.130;9.218;2022-07-12T01:47:34;19.59;66.80
61351;DHT22;47119;49.130;9.218;2022-07-12T01:50:04;19.55;67.02
61351;DHT22;47119;49.130;9.218;2022-07-12T01:52:39;19.55;66.92
61351;DHT22;47119;49.130;9.218;2022-07-12T01:55:11;19.58;66.83
61351;DHT22;47119;49.130;9.218;2022-07-12T01:57:42;19.54;66.92
61351;DHT22;47119;49.130;9.218;2022-07-12T02:00:12;19.54;66.90
61351;DHT22;47119;49.130;9.218;2022-07-12T02:02:40;19.51;67.23
61351;DHT22;47119;49.130;9.218;2022-07-12T02:05:07;19.50;67.07
61351;DHT22;47119;49.130;9.218;2022-07-12T02:07:37;19.47;67.25
61351;DHT22;47119;49.130;9.218;2022-07-12T02:10:10;19.48;67.20
61351;DHT22;47119;49.130;9.218;2022-07-12T02:12:38;19.47;67.36
61351;DHT22;47119;49.130;9.218;2022-07-12T02:15:06;19.44;67.48
61351;DHT22;47119;49.130;9.218;2022-07-12T02:17:36;19.41;67.41
61351;DHT22;47119;49.130;9.218;2022-07-12T02:20:06;19.43;67.52
61351;DHT22;47119;49.130;9.218;2022-07-12T02:22:37;19.39;67.39
61351;DHT22;47119;49.130;9.218;2022-07-12T02:25:05;19.39;67.55
61351;DHT22;47119;49.130;9.218;2022-07-12T02:27:34;19.35;67.68
61351;DHT22;47119;49.130;9.218;2022-07-12T02:30:01;19.32;67.75
61351;DHT22;47119;49.130;9.218;2022-07-12T02:32:29;19.35;67.68
61351;DHT22;47119;49.130;9.218;2022-07-12T02:34:58;19.35;67.72
61351;DHT22;47119;49.130;9.218;2022-07-12T02:37:25;19.35;67.75
61351;DHT22;47119;49.130;9.218;2022-07-12T02:39:52;19.32;67.82
61351;DHT22;47119;49.130;9.218;2022-07-12T02:42:41;19.34;67.74
61351;DHT22;47119;49.130;9.218;2022-07-12T02:45:09;19.32;67.69
61351;DHT22;47119;49.130;9.218;2022-07-12T02:47:38;19.37;67.52
61351;DHT22;47119;49.130;9.218;2022-07-12T02:50:06;19.31;67.53
61351;DHT22;47119;49.130;9.218;2022-07-12T02:52:34;19.34;67.62
61351;DHT22;47119;49.130;9.218;2022-07-12T02:55:01;19.37;67.41
61351;DHT22;47119;49.130;9.218;2022-07-12T02:57:30;19.39;67.34
61351;DHT22;47119;49.130;9.218;2022-07-12T03:00:02;19.38;67.30
61351;DHT22;47119;49.130;9.218;2022-07-12T03:02:34;19.32;67.43
61351;DHT22;47119;49.130;9.218;2022-07-12T03:05:05;19.31;67.68
61351;DHT22;47119;49.130;9.218;2022-07-12T03:07:35;19.28;67.91
61351;DHT22;47119;49.130;9.218;2022-07-12T03:10:03;19.28;67.80
61351;DHT22;47119;49.130;9.218;2022-07-12T03:12:36;19.27;67.74
61351;DHT22;47119;49.130;9.218;2022-07-12T03:15:06;19.26;67.99
61351;DHT22;47119;49.130;9.218;2022-07-12T03:17:36;19.21;67.90
61351;DHT22;47119;49.130;9.218;2022-07-12T03:20:07;19.21;68.00
61351;DHT22;47119;49.130;9.218;2022-07-12T03:22:37;19.24;67.84
61351;DHT22;47119;49.130;9.218;2022-07-12T03:25:05;19.20;68.01
61351;DHT22;47119;49.130;9.218;2022-07-12T03:27:32;19.18;68.00
61351;DHT22;47119;49.130;9.218;2022-07-12T03:30:00;19.17;68.08
61351;DHT22;47119;49.130;9.218;2022-07-12T03:32:31;19.14;68.22
61351;DHT22;47119;49.130;9.218;2022-07-12T03:34:58;19.16;68.23
61351;DHT22;47119;49.130;9.218;2022-07-12T03:37:25;19.14;68.17
61351;DHT22;47119;49.130;9.218;2022-07-12T03:39:52;19.14;68.10
61351;DHT22;47119;49.130;9.218;2022-07-12T03:42:22;19.11;68.13
61351;DHT22;47119;49.130;9.218;2022-07-12T03:44:49;19.07;68.20
61351;DHT22;47119;49.130;9.218;2022-07-12T03:47:20;19.00;68.41
61351;DHT22;47119;49.130;9.218;2022-07-12T03:49:49;18.96;68.35
61351;DHT22;47119;49.130;9.218;2022-07-12T03:52:18;18.93;68.51
61351;DHT22;47119;49.130;9.218;2022-07-12T03:54:45;18.90;68.51
61351;DHT22;47119;49.130;9.218;2022-07-12T03:57:12;18.86;68.66
61351;DHT22;47119;49.130;9.218;2022-07-12T03:59:45;18.93;68.61
61351;DHT22;47119;49.130;9.218;2022-07-12T04:02:12;18.97;68.47
61351;DHT22;47119;49.130;9.218;2022-07-12T04:04:44;18.99;68.35
61351;DHT22;47119;49.130;9.218;2022-07-12T04:07:15;19.00;68.43
61351;DHT22;47119;49.130;9.218;2022-07-12T04:09:42;19.04;68.32
61351;DHT22;47119;49.130;9.218;2022-07-12T04:12:09;19.04;68.45
61351;DHT22;47119;49.130;9.218;2022-07-12T04:14:39;19.02;68.33
61351;DHT22;47119;49.130;9.218;2022-07-12T04:17:06;19.07;68.30
61351;DHT22;47119;49.130;9.218;2022-07-12T04:19:33;19.06;68.38
61351;DHT22;47119;49.130;9.218;2022-07-12T04:22:00;19.06;68.45
61351;DHT22;47119;49.130;9.218;2022-07-12T04:24:28;19.03;68.53
61351;DHT22;47119;49.130;9.218;2022-07-12T04:26:56;19.04;68.36
61351;DHT22;47119;49.130;9.218;2022-07-12T04:29:23;19.04;68.39
61351;DHT22;47119;49.130;9.218;2022-07-12T04:31:53;19.07;68.40
61351;DHT22;47119;49.130;9.218;2022-07-12T04:34:20;19.07;68.36
61351;DHT22;47119;49.130;9.218;2022-07-12T04:36:47;19.06;68.29
61351;DHT22;47119;49.130;9.218;2022-07-12T04:39:17;19.06;68.35
61351;DHT22;47119;49.130;9.218;2022-07-12T04:41:47;19.14;68.13
61351;DHT22;47119;49.130;9.218;2022-07-12T04:44:14;19.08;68.20
61351;DHT22;47119;49.130;9.218;2022-07-12T04:46:52;19.17;67.98
61351;DHT22;47119;49.130;9.218;2022-07-12T04:49:19;19.20;67.85
61351;DHT22;47119;49.130;9.218;2022-07-12T04:51:50;19.23;67.64
61351;DHT22;47119;49.130;9.218;2022-07-12T04:54:17;19.23;67.61
61351;DHT22;47119;49.130;9.218;2022-07-12T04:56:47;19.24;67.59
61351;DHT22;47119;49.130;9.218;2022-07-12T04:59:15;19.17;68.09
61351;DHT22;47119;49.130;9.218;2022-07-12T05:01:42;19.08;68.15
61351;DHT22;47119;49.130;9.218;2022-07-12T05:04:11;19.10;68.24
61351;DHT22;47119;49.130;9.218;2022-07-12T05:06:44;19.14;67.99
61351;DHT22;47119;49.130;9.218;2022-07-12T05:09:13;19.16;67.96
61351;DHT22;47119;49.130;9.218;2022-07-12T05:11:43;19.16;68.04
61351;DHT22;47119;49.130;9.218;2022-07-12T05:14:12;19.16;68.18
61351;DHT22;47119;49.130;9.218;2022-07-12T05:16:39;19.16;67.99
61351;DHT22;47119;49.130;9.218;2022-07-12T05:19:08;19.17;68.03
61351;DHT22;47119;49.130;9.218;2022-07-12T05:21:43;19.16;68.23
61351;DHT22;47119;49.130;9.218;2022-07-12T05:24:11;19.18;68.02
61351;DHT22;47119;49.130;9.218;2022-07-12T05:26:38;19.18;67.97
61351;DHT22;47119;49.130;9.218;2022-07-12T05:29:05;19.26;67.88
61351;DHT22;47119;49.130;9.218;2022-07-12T05:31:34;19.28;67.72
61351;DHT22;47119;49.130;9.218;2022-07-12T05:34:03;19.23;67.82
61351;DHT22;47119;49.130;9.218;2022-07-12T05:36:33;19.30;67.61
61351;DHT22;47119;49.130;9.218;2022-07-12T05:39:02;19.28;67.70
61351;DHT22;47119;49.130;9.218;2022-07-12T05:41:32;19.27;67.88
61351;DHT22;47119;49.130;9.218;2022-07-12T05:43:59;19.37;67.61
61351;DHT22;47119;49.130;9.218;2022-07-12T05:46:26;19.32;67.75
61351;DHT22;47119;49.130;9.218;2022-07-12T05:48:54;19.35;67.74
61351;DHT22;47119;49.130;9.218;2022-07-12T05:51:21;19.35;67.76
61351;DHT22;47119;49.130;9.218;2022-07-12T05:54:06;19.37;67.85
61351;DHT22;47119;49.130;9.218;2022-07-12T05:56:34;19.44;67.70
61351;DHT22;47119;49.130;9.218;2022-07-12T05:59:02;19.47;67.63
61351;DHT22;47119;49.130;9.218;2022-07-12T06:01:29;19.46;67.58
61351;DHT22;47119;49.130;9.218;2022-07-12T06:03:57;19.51;67.54
61351;DHT22;47119;49.130;9.218;2022-07-12T06:06:27;19.51;67.61
61351;DHT22;47119;49.130;9.218;2022-07-12T06:08:54;19.50;67.69
61351;DHT22;47119;49.130;9.218;2022-07-12T06:11:21;19.46;67.75
61351;DHT22;47119;49.130;9.218;2022-07-12T06:13:48;19.50;67.64
61351;DHT22;47119;49.130;9.218;2022-07-12T06:16:16;19.48;67.75
61351;DHT22;47119;49.130;9.218;2022-07-12T06:18:43;19.54;67.47
61351;DHT22;47119;49.130;9.218;2022-07-12T06:21:11;19.58;67.48
61351;DHT22;47119;49.130;9.218;2022-07-12T06:23:41;19.62;67.52
61351;DHT22;47119;49.130;9.218;2022-07-12T06:26:08;19.62;67.37
61351;DHT22;47119;49.130;9.218;2022-07-12T06:28:37;19.59;67.45
61351;DHT22;47119;49.130;9.218;2022-07-12T06:31:05;19.61;67.47
61351;DHT22;47119;49.130;9.218;2022-07-12T06:33:34;19.61;67.55
61351;DHT22;47119;49.130;9.218;2022-07-12T06:36:04;19.65;67.22
61351;DHT22;47119;49.130;9.218;2022-07-12T06:38:33;19.64;67.44
61351;DHT22;47119;49.130;9.218;2022-07-12T06:41:02;19.65;67.36
61351;DHT22;47119;49.130;9.218;2022-07-12T06:43:29;19.64;67.37
61351;DHT22;47119;49.130;9.218;2022-07-12T06:45:56;19.68;67.40
61351;DHT22;47119;49.130;9.218;2022-07-12T06:48:23;19.69;67.41
61351;DHT22;47119;49.130;9.218;2022-07-12T06:50:50;19.68;67.13
61351;DHT22;47119;49.130;9.218;2022-07-12T06:53:20;19.69;67.25
61351;DHT22;47119;49.130;9.218;2022-07-12T06:55:50;19.71;67.13
61351;DHT22;47119;49.130;9.218;2022-07-12T06:58:18;19.75;66.99
61351;DHT22;47119;49.130;9.218;2022-07-12T07:00:45;19.74;67.02
61351;DHT22;47119;49.130;9.218;2022-07-12T07:03:18;19.72;67.10
61351;DHT22;47119;49.130;9.218;2022-07-12T07:05:47;19.74;67.02
61351;DHT22;47119;49.130;9.218;2022-07-12T07:08:15;19.77;66.76
61351;DHT22;47119;49.130;9.218;2022-07-12T07:10:42;19.77;66.96
61351;DHT22;47119;49.130;9.218;2022-07-12T07:13:10;19.81;66.79
61351;DHT22;47119;49.130;9.218;2022-07-12T07:15:42;19.78;66.98
61351;DHT22;47119;49.130;9.218;2022-07-12T07:18:09;19.82;66.75
61351;DHT22;47119;49.130;9.218;2022-07-12T07:20:36;19.85;66.61
61351;DHT22;47119;49.130;9.218;2022-07-12T07:23:08;19.86;66.67
61351;DHT22;47119;49.130;9.218;2022-07-12T07:25:43;19.88;66.40
61351;DHT22;47119;49.130;9.218;2022-07-12T07:28:13;19.89;66.36
61351;DHT22;47119;49.130;9.218;2022-07-12T07:30:44;19.88;66.34
61351;DHT22;47119;49.130;9.218;2022-07-12T07:33:24;19.88;66.57
61351;DHT22;47119;49.130;9.218;2022-07-12T07:35:52;19.90;66.43
61351;DHT22;47119;49.130;9.218;2022-07-12T07:38:22;19.88;66.07
61351;DHT22;47119;49.130;9.218;2022-07-12T07:40:50;19.90;66.29
61351;DHT22;47119;49.130;9.218;2022-07-12T07:43:21;19.92;66.26
61351;DHT22;47119;49.130;9.218;2022-07-12T07:45:48;19.90;66.27
61351;DHT22;47119;49.130;9.218;2022-07-12T07:48:16;19.90;66.61
61351;DHT22;47119;49.130;9.218;2022-07-12T07:50:44;19.89;66.49
61351;DHT22;47119;49.130;9.218;2022-07-12T07:53:11;19.93;66.10
61351;DHT22;47119;49.130;9.218;2022-07-12T07:55:40;19.93;66.07
61351;DHT22;47119;49.130;9.218;2022-07-12T07:58:07;19.95;66.40
61351;DHT22;47119;49.130;9.218;2022-07-12T08:00:39;19.85;67.92
61351;DHT22;47119;49.130;9.218;2022-07-12T08:03:06;19.88;66.96
61351;DHT22;47119;49.130;9.218;2022-07-12T08:05:36;19.93;66.81
61351;DHT22;47119;49.130;9.218;2022-07-12T08:08:03;19.93;67.06
61351;DHT22;47119;49.130;9.218;2022-07-12T08:10:31;19.95;66.91
61351;DHT22;47119;49.130;9.218;2022-07-12T08:12:59;19.95;66.71
61351;DHT22;47119;49.130;9.218;2022-07-12T08:15:26;19.92;67.52
61351;DHT22;47119;49.130;9.218;2022-07-12T08:17:55;19.93;66.08
61351;DHT22;47119;49.130;9.218;2022-07-12T08:20:22;19.93;66.44
61351;DHT22;47119;49.130;9.218;2022-07-12T08:22:50;19.86;68.18
61351;DHT22;47119;49.130;9.218;2022-07-12T08:25:17;19.95;66.68
61351;DHT22;47119;49.130;9.218;2022-07-12T08:27:46;19.96;66.30
61351;DHT22;47119;49.130;9.218;2022-07-12T08:30:15;19.96;66.61
61351;DHT22;47119;49.130;9.218;2022-07-12T08:32:46;19.98;66.51
61351;DHT22;47119;49.130;9.218;2022-07-12T08:35:15;19.96;66.32
61351;DHT22;47119;49.130;9.218;2022-07-12T08:37:44;19.98;66.33
61351;DHT22;47119;49.130;9.218;2022-07-12T08:40:13;19.93;66.30
61351;DHT22;47119;49.130;9.218;2022-07-12T08:42:41;19.89;68.37
61351;DHT22;47119;49.130;9.218;2022-07-12T08:45:11;19.89;67.72
61351;DHT22;47119;49.130;9.218;2022-07-12T08:47:41;19.88;66.58
61351;DHT22;47119;49.130;9.218;2022-07-12T08:50:14;19.92;66.88
61351;DHT22;47119;49.130;9.218;2022-07-12T08:52:45;19.90;66.53
61351;DHT22;47119;49.130;9.218;2022-07-12T08:55:22;19.85;67.25
61351;DHT22;47119;49.130;9.218;2022-07-12T08:57:51;19.96;65.29
61351;DHT22;47119;49.130;9.218;2022-07-12T09:00:23;19.93;66.14
61351;DHT22;47119;49.130;9.218;2022-07-12T09:02:55;19.93;66.25
61351;DHT22;47119;49.130;9.218;2022-07-12T09:05:25;19.90;66.02
61351;DHT22;47119;49.130;9.218;2022-07-12T09:08:02;19.96;65.79
61351;DHT22;47119;49.130;9.218;2022-07-12T09:10:34;19.92;65.98
61351;DHT22;47119;49.130;9.218;2022-07-12T09:13:17;19.95;65.83
61351;DHT22;47119;49.130;9.218;2022-07-12T09:15:44;19.95;64.86
61351;DHT22;47119;49.130;9.218;2022-07-12T09:18:13;19.95;65.38
61351;DHT22;47119;49.130;9.218;2022-07-12T09:20:51;19.99;64.99
61351;DHT22;47119;49.130;9.218;2022-07-12T09:23:19;19.98;65.05
61351;DHT22;47119;49.130;9.218;2022-07-12T09:25:47;19.96;65.70
61351;DHT22;47119;49.130;9.218;2022-07-12T09:28:15;19.98;65.61
61351;DHT22;47119;49.130;9.218;2022-07-12T09:30:47;19.96;65.29
61351;DHT22;47119;49.130;9.218;2022-07-12T09:33:17;19.88;67.19
61351;DHT22;47119;49.130;9.218;2022-07-12T09:36:05;19.82;67.35
61351;DHT22;47119;49.130;9.218;2022-07-12T09:38:35;19.89;66.90
61351;DHT22;47119;49.130;9.218;2022-07-12T09:41:04;19.92;66.55
61351;DHT22;47119;49.130;9.218;2022-07-12T09:43:32;19.96;65.07
61351;DHT22;47119;49.130;9.218;2022-07-12T09:46:00;19.93;66.65
61351;DHT22;47119;49.130;9.218;2022-07-12T09:48:28;19.89;67.27
61351;DHT22;47119;49.130;9.218;2022-07-12T09:50:57;19.95;66.01
61351;DHT22;47119;49.130;9.218;2022-07-12T09:53:29;19.98;65.70
61351;DHT22;47119;49.130;9.218;2022-07-12T09:56:01;19.93;67.27
61351;DHT22;47119;49.130;9.218;2022-07-12T09:58:36;19.98;65.09
61351;DHT22;47119;49.130;9.218;2022-07-12T10:01:08;20.02;65.08
61351;DHT22;47119;49.130;9.218;2022-07-12T10:03:40;19.95;66.85
61351;DHT22;47119;49.130;9.218;2022-07-12T10:06:12;19.92;67.71
61351;DHT22;47119;49.130;9.218;2022-07-12T10:08:47;19.90;66.44
61351;DHT22;47119;49.130;9.218;2022-07-12T10:11:18;19.99;65.84
61351;DHT22;47119;49.130;9.218;2022-07-12T10:13:47;19.93;66.45
61351;DHT22;47119;49.130;9.218;2022-07-12T10:16:24;19.95;65.15
61351;DHT22;47119;49.130;9.218;2022-07-12T10:19:29;20.04;64.34
61351;DHT22;47119;49.130;9.218;2022-07-12T10:22:02;20.05;64.21
61351;DHT22;47119;49.130;9.218;2022-07-12T10:24:51;19.99;65.63
61351;DHT22;47119;49.130;9.218;2022-07-12T10:27:32;19.93;66.74
61351;DHT22;47119;49.130;9.218;2022-07-12T10:30:16;20.04;64.71
61351;DHT22;47119;49.130;9.218;2022-07-12T10:32:46;19.99;65.80
61351;DHT22;47119;49.130;9.218;2022-07-12T10:35:17;19.93;67.55
61351;DHT22;47119;49.130;9.218;2022-07-12T10:38:17;19.92;67.54
61351;DHT22;47119;49.130;9.218;2022-07-12T10:40:50;19.98;66.32
61351;DHT22;47119;49.130;9.218;2022-07-12T10:43:22;20.02;65.86
61351;DHT22;47119;49.130;9.218;2022-07-12T10:46:22;19.95;66.90
61351;DHT22;47119;49.130;9.218;2022-07-12T10:49:25;20.02;65.69
61351;DHT22;47119;49.130;9.218;2022-07-12T10:52:15;20.04;64.46
61351;DHT22;47119;49.130;9.218;2022-07-12T10:54:47;20.04;65.10
61351;DHT22;47119;49.130;9.218;2022-07-12T10:57:46;20.05;65.54
61351;DHT22;47119;49.130;9.218;2022-07-12T11:00:17;20.05;65.01
61351;DHT22;47119;49.130;9.218;2022-07-12T11:02:45;20.02;65.98
61351;DHT22;47119;49.130;9.218;2022-07-12T11:05:12;20.04;65.45
61351;DHT22;47119;49.130;9.218;2022-07-12T11:07:39;20.04;65.99
61351;DHT22;47119;49.130;9.218;2022-07-12T11:10:12;20.05;65.34
61351;DHT22;47119;49.130;9.218;2022-07-12T11:12:44;20.10;63.83
61351;DHT22;47119;49.130;9.218;2022-07-12T11:15:13;20.09;64.48
61351;DHT22;47119;49.130;9.218;2022-07-12T11:17:42;20.10;64.50
61351;DHT22;47119;49.130;9.218;2022-07-12T11:20:12;20.08;64.33
61351;DHT22;47119;49.130;9.218;2022-07-12T11:22:41;20.10;64.44
61351;DHT22;47119;49.130;9.218;2022-07-12T11:25:12;20.08;64.79
61351;DHT22;47119;49.130;9.218;2022-07-12T11:27:39;20.09;64.39
61351;DHT22;47119;49.130;9.218;2022-07-12T11:30:09;20.09;63.81
61351;DHT22;47119;49.130;9.218;2022-07-12T11:32:40;20.10;64.51
61351;DHT22;47119;49.130;9.218;2022-07-12T11:35:19;20.09;64.84
61351;DHT22;47119;49.130;9.218;2022-07-12T11:37:52;20.06;64.76
61351;DHT22;47119;49.130;9.218;2022-07-12T11:40:24;20.06;66.86
61351;DHT22;47119;49.130;9.218;2022-07-12T11:42:57;20.08;64.77
61351;DHT22;47119;49.130;9.218;2022-07-12T11:45:27;20.09;66.05
61351;DHT22;47119;49.130;9.218;2022-07-12T11:47:57;19.99;67.68
61351;DHT22;47119;49.130;9.218;2022-07-12T11:50:25;20.05;65.93
61351;DHT22;47119;49.130;9.218;2022-07-12T11:52:55;20.08;64.87
61351;DHT22;47119;49.130;9.218;2022-07-12T11:55:23;20.12;64.25
61351;DHT22;47119;49.130;9.218;2022-07-12T11:58:03;20.15;64.32
61351;DHT22;47119;49.130;9.218;2022-07-12T12:00:32;20.09;64.54
61351;DHT22;47119;49.130;9.218;2022-07-12T12:02:59;20.08;65.37
61351;DHT22;47119;49.130;9.218;2022-07-12T12:05:31;20.09;65.58
61351;DHT22;47119;49.130;9.218;2022-07-12T12:07:59;20.06;66.24
61351;DHT22;47119;49.130;9.218;2022-07-12T12:10:28;20.02;67.56
61351;DHT22;47119;49.130;9.218;2022-07-12T12:12:59;20.04;67.05
61351;DHT22;47119;49.130;9.218;2022-07-12T12:15:29;20.08;65.59
61351;DHT22;47119;49.130;9.218;2022-07-12T12:18:03;20.05;66.61
61351;DHT22;47119;49.130;9.218;2022-07-12T12:20:35;20.04;67.42
61351;DHT22;47119;49.130;9.218;2022-07-12T12:23:05;20.05;66.78
61351;DHT22;47119;49.130;9.218;2022-07-12T12:25:34;20.10;66.39
61351;DHT22;47119;49.130;9.218;2022-07-12T12:28:02;20.09;66.55
61351;DHT22;47119;49.130;9.218;2022-07-12T12:30:31;20.10;66.10
61351;DHT22;47119;49.130;9.218;2022-07-12T12:33:04;20.09;66.76
61351;DHT22;47119;49.130;9.218;2022-07-12T12:35:33;20.08;65.45
61351;DHT22;47119;49.130;9.218;2022-07-12T12:38:13;20.12;65.28
61351;DHT22;47119;49.130;9.218;2022-07-12T12:40:50;20.15;64.12
61351;DHT22;47119;49.130;9.218;2022-07-12T12:43:20;20.16;65.06
61351;DHT22;47119;49.130;9.218;2022-07-12T12:45:52;20.16;64.59
61351;DHT22;47119;49.130;9.218;2022-07-12T12:48:22;20.09;66.93
61351;DHT22;47119;49.130;9.218;2022-07-12T12:50:52;19.99;67.68
61351;DHT22;47119;49.130;9.218;2022-07-12T12:53:21;19.98;67.21
61351;DHT22;47119;49.130;9.218;2022-07-12T12:55:51;20.04;64.13
61351;DHT22;47119;49.130;9.218;2022-07-12T12:58:23;20.13;64.27
61351;DHT22;47119;49.130;9.218;2022-07-12T13:00:54;20.15;64.20
61351;DHT22;47119;49.130;9.218;2022-07-12T13:03:23;20.12;65.64
61351;DHT22;47119;49.130;9.218;2022-07-12T13:05:53;20.17;63.88
61351;DHT22;47119;49.130;9.218;2022-07-12T13:08:21;20.19;63.92
61351;DHT22;47119;49.130;9.218;2022-07-12T13:10:48;20.20;63.92
61351;DHT22;47119;49.130;9.218;2022-07-12T13:13:36;20.15;64.88
61351;DHT22;47119;49.130;9.218;2022-07-12T13:16:05;20.16;64.80
61351;DHT22;47119;49.130;9.218;2022-07-12T13:18:34;20.23;63.43
61351;DHT22;47119;49.130;9.218;2022-07-12T13:21:04;20.23;63.87
61351;DHT22;47119;49.130;9.218;2022-07-12T13:23:31;20.20;63.90
61351;DHT22;47119;49.130;9.218;2022-07-12T13:25:58;20.15;66.62
61351;DHT22;47119;49.130;9.218;2022-07-12T13:28:28;20.19;64.97
61351;DHT22;47119;49.130;9.218;2022-07-12T13:30:57;20.22;63.47
61351;DHT22;47119;49.130;9.218;2022-07-12T13:33:24;20.19;65.44
61351;DHT22;47119;49.130;9.218;2022-07-12T13:35:58;20.20;64.46
61351;DHT22;47119;49.130;9.218;2022-07-12T13:38:27;20.17;66.28
61351;DHT22;47119;49.130;9.218;2022-07-12T13:40:54;20.20;65.61
61351;DHT22;47119;49.130;9.218;2022-07-12T13:43:21;20.25;64.68
61351;DHT22;47119;49.130;9.218;2022-07-12T13:45:49;20.23;63.15
61351;DHT22;47119;49.130;9.218;2022-07-12T13:48:17;20.23;64.35
61351;DHT22;47119;49.130;9.218;2022-07-12T13:50:45;20.25;64.61
61351;DHT22;47119;49.130;9.218;2022-07-12T13:53:14;20.23;63.96
61351;DHT22;47119;49.130;9.218;2022-07-12T13:55:41;20.25;64.84
61351;DHT22;47119;49.130;9.218;2022-07-12T13:58:09;20.26;64.36
61351;DHT22;47119;49.130;9.218;2022-07-12T14:00:36;20.25;63.69
61351;DHT22;47119;49.130;9.218;2022-07-12T14:03:05;20.25;63.40
61351;DHT22;47119;49.130;9.218;2022-07-12T14:05:35;20.23;64.66
61351;DHT22;47119;49.130;9.218;2022-07-12T14:08:05;20.23;63.62
61351;DHT22;47119;49.130;9.218;2022-07-12T14:10:34;20.23;64.53
61351;DHT22;47119;49.130;9.218;2022-07-12T14:13:04;20.26;64.56
61351;DHT22;47119;49.130;9.218;2022-07-12T14:15:31;20.22;65.42
61351;DHT22;47119;49.130;9.218;2022-07-12T14:18:08;20.22;64.73
61351;DHT22;47119;49.130;9.218;2022-07-12T14:20:35;20.26;63.16
61351;DHT22;47119;49.130;9.218;2022-07-12T14:23:03;20.23;64.08
61351;DHT22;47119;49.130;9.218;2022-07-12T14:25:34;20.25;63.42
61351;DHT22;47119;49.130;9.218;2022-07-12T14:28:06;20.25;63.87
61351;DHT22;47119;49.130;9.218;2022-07-12T14:30:33;20.26;62.91
61351;DHT22;47119;49.130;9.218;2022-07-12T14:33:08;20.26;63.97
61351;DHT22;47119;49.130;9.218;2022-07-12T14:35:35;20.23;63.74
61351;DHT22;47119;49.130;9.218;2022-07-12T14:38:05;20.25;63.99
61351;DHT22;47119;49.130;9.218;2022-07-12T14:40:36;20.27;64.52
61351;DHT22;47119;49.130;9.218;2022-07-12T14:43:03;20.25;65.37
61351;DHT22;47119;49.130;9.218;2022-07-12T14:45:30;20.23;64.85
61351;DHT22;47119;49.130;9.218;2022-07-12T14:47:57;20.25;64.92
61351;DHT22;47119;49.130;9.218;2022-07-12T14:50:26;20.27;64.42
61351;DHT22;47119;49.130;9.218;2022-07-12T14:52:54;20.25;64.38
61351;DHT22;47119;49.130;9.218;2022-07-12T14:55:22;20.25;64.29
61351;DHT22;47119;49.130;9.218;2022-07-12T14:57:50;20.26;64.03
61351;DHT22;47119;49.130;9.218;2022-07-12T15:00:18;20.27;64.54
61351;DHT22;47119;49.130;9.218;2022-07-12T15:02:48;20.27;64.07
61351;DHT22;47119;49.130;9.218;2022-07-12T15:05:15;20.26;64.56
61351;DHT22;47119;49.130;9.218;2022-07-12T15:07:44;20.27;63.36
61351;DHT22;47119;49.130;9.218;2022-07-12T15:10:11;20.30;64.21
61351;DHT22;47119;49.130;9.218;2022-07-12T15:12:38;20.26;64.56
61351;DHT22;47119;49.130;9.218;2022-07-12T15:15:09;20.29;64.80
61351;DHT22;47119;49.130;9.218;2022-07-12T15:17:38;20.29;64.63
61351;DHT22;47119;49.130;9.218;2022-07-12T15:20:05;20.27;64.69
61351;DHT22;47119;49.130;9.218;2022-07-12T15:22:33;20.29;64.63
61351;DHT22;47119;49.130;9.218;2022-07-12T15:25:00;20.26;65.61
61351;DHT22;47119;49.130;9.218;2022-07-12T15:27:27;20.29;64.33
61351;DHT22;47119;49.130;9.218;2022-07-12T15:29:55;20.27;64.34
61351;DHT22;47119;49.130;9.218;2022-07-12T15:32:23;20.27;64.40
61351;DHT22;47119;49.130;9.218;2022-07-12T15:34:54;20.26;64.20
61351;DHT22;47119;49.130;9.218;2022-07-12T15:37:24;20.29;64.60
61351;DHT22;47119;49.130;9.218;2022-07-12T15:39:51;20.27;64.69
61351;DHT22;47119;49.130;9.218;2022-07-12T15:42:18;20.27;64.30
61351;DHT22;47119;49.130;9.218;2022-07-12T15:44:45;20.29;64.25
61351;DHT22;47119;49.130;9.218;2022-07-12T15:47:13;20.27;64.46
61351;DHT22;47119;49.130;9.218;2022-07-12T15:49:43;20.29;64.14
61351;DHT22;47119;49.130;9.218;2022-07-12T15:52:13;20.29;65.11